Humboldt, Canada
Current Conditions -  °F | °C
As of 8:00 AM on Friday 31 Oct 2014 (Local Time) from CYXE Reporting Station
Overcast Overcast  
Wind Chill: 23°   Ceiling: 21000
Heat Index: 34°   Visibility: 15mi
Dew Point: 28°   Wind: 17mph
Humidity: 81%   Direction: 150°SSE
Pressure: 29.99"   Gusts: NA
Location:  52.2°N, 105.12°W
Report Text: CYXE 311400Z 15015KT 15SM FEW120 OVC210 01/M02 A2999 RMK AC2CI6 SLP183
Loading
Personal Weather Stations






























Interactive Weather Map
Tropical Storm Tracking
New forecast layout! Learn more

10-Day Weather Forecast

Advertisements
Track Severe Weather on mobile